sensor_id;sensor_type;location;lat;lon;timestamp;pressure;altitude;pressure_sealevel;temperature;humidity
46710;BME280;32442;51.514;-0.178;2022-10-17T00:01:49;100670.66;;;21.76;58.71
46710;BME280;32442;51.514;-0.178;2022-10-17T00:04:15;100671.44;;;21.76;58.84
46710;BME280;32442;51.514;-0.178;2022-10-17T00:06:42;100686.34;;;21.77;58.61
46710;BME280;32442;51.514;-0.178;2022-10-17T00:09:09;100690.81;;;21.78;58.69
46710;BME280;32442;51.514;-0.178;2022-10-17T00:11:35;100685.19;;;21.78;58.88
46710;BME280;32442;51.514;-0.178;2022-10-17T00:14:09;100691.66;;;21.78;59.18
46710;BME280;32442;51.514;-0.178;2022-10-17T00:16:36;100686.88;;;21.79;59.10
46710;BME280;32442;51.514;-0.178;2022-10-17T00:19:04;100673.94;;;21.78;59.06
46710;BME280;32442;51.514;-0.178;2022-10-17T00:21:31;100663.53;;;21.78;58.80
46710;BME280;32442;51.514;-0.178;2022-10-17T00:23:58;100671.66;;;21.80;58.72
46710;BME280;32442;51.514;-0.178;2022-10-17T00:26:25;100685.72;;;21.80;58.88
46710;BME280;32442;51.514;-0.178;2022-10-17T00:28:53;100678.91;;;21.81;57.84
46710;BME280;32442;51.514;-0.178;2022-10-17T00:31:21;100682.38;;;21.78;58.53
46710;BME280;32442;51.514;-0.178;2022-10-17T00:33:48;100683.22;;;21.78;58.01
46710;BME280;32442;51.514;-0.178;2022-10-17T00:36:17;100690.81;;;21.78;59.12
46710;BME280;32442;51.514;-0.178;2022-10-17T00:38:44;100693.31;;;21.79;57.88
46710;BME280;32442;51.514;-0.178;2022-10-17T00:41:13;100704.06;;;21.77;58.81
46710;BME280;32442;51.514;-0.178;2022-10-17T00:46:27;100734.50;;;21.75;59.45
46710;BME280;32442;51.514;-0.178;2022-10-17T00:48:54;100737.81;;;21.77;59.21
46710;BME280;32442;51.514;-0.178;2022-10-17T00:51:24;100740.44;;;21.73;59.83
46710;BME280;32442;51.514;-0.178;2022-10-17T00:53:55;100732.00;;;21.73;59.56
46710;BME280;32442;51.514;-0.178;2022-10-17T00:56:21;100743.25;;;21.73;59.88
46710;BME280;32442;51.514;-0.178;2022-10-17T00:58:48;100738.75;;;21.72;58.85
46710;BME280;32442;51.514;-0.178;2022-10-17T01:01:15;100738.13;;;21.76;59.01
46710;BME280;32442;51.514;-0.178;2022-10-17T01:03:42;100745.41;;;21.77;59.47
46710;BME280;32442;51.514;-0.178;2022-10-17T01:06:09;100746.22;;;21.77;58.37
46710;BME280;32442;51.514;-0.178;2022-10-17T01:08:35;100750.19;;;21.76;58.90
46710;BME280;32442;51.514;-0.178;2022-10-17T01:11:10;100746.88;;;21.74;59.31
46710;BME280;32442;51.514;-0.178;2022-10-17T01:14:03;100750.84;;;21.73;58.77
46710;BME280;32442;51.514;-0.178;2022-10-17T01:16:31;100760.13;;;21.73;59.07
46710;BME280;32442;51.514;-0.178;2022-10-17T01:21:30;100762.09;;;21.73;59.39
46710;BME280;32442;51.514;-0.178;2022-10-17T01:32:03;100761.78;;;21.74;58.48
46710;BME280;32442;51.514;-0.178;2022-10-17T01:34:44;100767.41;;;21.74;58.93
46710;BME280;32442;51.514;-0.178;2022-10-17T01:39:46;100771.06;;;21.75;58.77
46710;BME280;32442;51.514;-0.178;2022-10-17T01:42:18;100767.41;;;21.74;58.56
46710;BME280;32442;51.514;-0.178;2022-10-17T01:45:05;100776.69;;;21.75;58.16
46710;BME280;32442;51.514;-0.178;2022-10-17T01:47:33;100776.16;;;21.73;59.20
46710;BME280;32442;51.514;-0.178;2022-10-17T01:50:02;100787.41;;;21.73;58.47
46710;BME280;32442;51.514;-0.178;2022-10-17T01:52:35;100780.63;;;21.74;58.25
46710;BME280;32442;51.514;-0.178;2022-10-17T01:55:13;100785.44;;;21.73;58.18
46710;BME280;32442;51.514;-0.178;2022-10-17T01:57:49;100778.13;;;21.72;58.60
46710;BME280;32442;51.514;-0.178;2022-10-17T02:00:18;100788.53;;;21.72;58.57
46710;BME280;32442;51.514;-0.178;2022-10-17T02:02:47;100797.31;;;21.70;58.23
46710;BME280;32442;51.514;-0.178;2022-10-17T02:05:16;100823.47;;;21.71;58.54
46710;BME280;32442;51.514;-0.178;2022-10-17T02:07:44;100818.16;;;21.69;58.28
46710;BME280;32442;51.514;-0.178;2022-10-17T02:10:34;100823.78;;;21.69;58.28
46710;BME280;32442;51.514;-0.178;2022-10-17T02:23:33;100833.16;;;21.65;58.69
46710;BME280;32442;51.514;-0.178;2022-10-17T02:26:08;100835.16;;;21.64;58.82
46710;BME280;32442;51.514;-0.178;2022-10-17T02:28:46;100834.31;;;21.64;58.43
46710;BME280;32442;51.514;-0.178;2022-10-17T02:31:21;100840.25;;;21.62;59.03
46710;BME280;32442;51.514;-0.178;2022-10-17T02:36:50;100858.28;;;21.61;58.60
46710;BME280;32442;51.514;-0.178;2022-10-17T02:39:18;100854.66;;;21.61;58.84
46710;BME280;32442;51.514;-0.178;2022-10-17T02:41:46;100852.13;;;21.59;58.68
46710;BME280;32442;51.514;-0.178;2022-10-17T02:44:13;100856.09;;;21.58;58.74
46710;BME280;32442;51.514;-0.178;2022-10-17T02:46:41;100852.44;;;21.58;58.87
46710;BME280;32442;51.514;-0.178;2022-10-17T02:49:16;100844.00;;;21.58;58.69
46710;BME280;32442;51.514;-0.178;2022-10-17T02:51:46;100832.28;;;21.56;59.17
46710;BME280;32442;51.514;-0.178;2022-10-17T02:54:22;100806.97;;;21.56;58.97
46710;BME280;32442;51.514;-0.178;2022-10-17T02:56:53;100793.22;;;21.54;59.33
46710;BME280;32442;51.514;-0.178;2022-10-17T02:59:23;100799.97;;;21.53;59.45
46710;BME280;32442;51.514;-0.178;2022-10-17T03:01:51;100814.88;;;21.54;59.59
46710;BME280;32442;51.514;-0.178;2022-10-17T03:04:18;100826.13;;;21.54;59.46
46710;BME280;32442;51.514;-0.178;2022-10-17T03:06:46;100814.03;;;21.53;59.51
46710;BME280;32442;51.514;-0.178;2022-10-17T03:09:13;100816.84;;;21.53;59.65
46710;BME280;32442;51.514;-0.178;2022-10-17T03:11:39;100816.84;;;21.53;59.74
46710;BME280;32442;51.514;-0.178;2022-10-17T03:14:06;100827.28;;;21.53;59.74
46710;BME280;32442;51.514;-0.178;2022-10-17T03:16:33;100822.81;;;21.52;59.89
46710;BME280;32442;51.514;-0.178;2022-10-17T03:18:59;100823.66;;;21.52;59.53
46710;BME280;32442;51.514;-0.178;2022-10-17T03:21:26;100826.75;;;21.51;60.00
46710;BME280;32442;51.514;-0.178;2022-10-17T03:23:53;100829.56;;;21.51;59.52
46710;BME280;32442;51.514;-0.178;2022-10-17T03:26:19;100825.94;;;21.50;59.88
46710;BME280;32442;51.514;-0.178;2022-10-17T03:28:46;100816.66;;;21.50;59.60
46710;BME280;32442;51.514;-0.178;2022-10-17T03:31:18;100807.41;;;21.49;59.61
46710;BME280;32442;51.514;-0.178;2022-10-17T03:33:45;100808.56;;;21.48;59.87
46710;BME280;32442;51.514;-0.178;2022-10-17T03:36:14;100820.63;;;21.49;59.74
46710;BME280;32442;51.514;-0.178;2022-10-17T03:38:42;100825.44;;;21.48;59.71
46710;BME280;32442;51.514;-0.178;2022-10-17T03:41:09;100833.03;;;21.48;59.85
46710;BME280;32442;51.514;-0.178;2022-10-17T03:43:35;100835.00;;;21.47;59.62
46710;BME280;32442;51.514;-0.178;2022-10-17T03:46:02;100839.81;;;21.47;59.79
46710;BME280;32442;51.514;-0.178;2022-10-17T03:48:30;100832.50;;;21.46;60.05
46710;BME280;32442;51.514;-0.178;2022-10-17T03:50:57;100848.53;;;21.45;59.64
46710;BME280;32442;51.514;-0.178;2022-10-17T03:53:28;100851.34;;;21.45;59.74
46710;BME280;32442;51.514;-0.178;2022-10-17T03:56:07;100851.69;;;21.44;59.84
46710;BME280;32442;51.514;-0.178;2022-10-17T03:58:34;100846.06;;;21.44;59.80
46710;BME280;32442;51.514;-0.178;2022-10-17T04:01:07;100848.03;;;21.43;59.56
46710;BME280;32442;51.514;-0.178;2022-10-17T04:03:34;100843.56;;;21.42;59.76
46710;BME280;32442;51.514;-0.178;2022-10-17T04:06:01;100852.00;;;21.42;59.90
46710;BME280;32442;51.514;-0.178;2022-10-17T04:08:28;100845.53;;;21.42;60.20
46710;BME280;32442;51.514;-0.178;2022-10-17T04:10:59;100841.06;;;21.41;59.77
46710;BME280;32442;51.514;-0.178;2022-10-17T04:13:28;100848.66;;;21.40;59.82
46710;BME280;32442;51.514;-0.178;2022-10-17T04:15:59;100835.78;;;21.39;59.73
46710;BME280;32442;51.514;-0.178;2022-10-17T04:18:26;100844.22;;;21.39;60.15
46710;BME280;32442;51.514;-0.178;2022-10-17T04:20:53;100848.47;;;21.37;60.24
46710;BME280;32442;51.514;-0.178;2022-10-17T04:23:19;100855.22;;;21.36;60.30
46710;BME280;32442;51.514;-0.178;2022-10-17T04:25:56;100851.28;;;21.37;60.41
46710;BME280;32442;51.514;-0.178;2022-10-17T04:28:23;100857.72;;;21.37;60.70
46710;BME280;32442;51.514;-0.178;2022-10-17T04:33:24;100872.09;;;21.36;60.51
46710;BME280;32442;51.514;-0.178;2022-10-17T04:35:55;100866.47;;;21.36;60.80
46710;BME280;32442;51.514;-0.178;2022-10-17T04:38:22;100860.84;;;21.36;60.59
46710;BME280;32442;51.514;-0.178;2022-10-17T04:40:55;100864.50;;;21.36;60.50
46710;BME280;32442;51.514;-0.178;2022-10-17T04:43:29;100858.38;;;21.34;60.90
46710;BME280;32442;51.514;-0.178;2022-10-17T04:45:56;100876.06;;;21.35;60.74
46710;BME280;32442;51.514;-0.178;2022-10-17T04:48:23;100879.69;;;21.35;61.11
46710;BME280;32442;51.514;-0.178;2022-10-17T04:50:53;100885.31;;;21.35;60.78
46710;BME280;32442;51.514;-0.178;2022-10-17T04:53:20;100895.75;;;21.35;60.99
46710;BME280;32442;51.514;-0.178;2022-10-17T04:55:54;100901.38;;;21.35;61.15
46710;BME280;32442;51.514;-0.178;2022-10-17T04:58:21;100900.53;;;21.34;61.22
46710;BME280;32442;51.514;-0.178;2022-10-17T05:00:48;100905.31;;;21.34;61.36
46710;BME280;32442;51.514;-0.178;2022-10-17T05:03:17;100892.41;;;21.33;61.55
46710;BME280;32442;51.514;-0.178;2022-10-17T05:05:51;100900.84;;;21.33;61.50
46710;BME280;32442;51.514;-0.178;2022-10-17T05:08:18;100907.28;;;21.33;61.27
46710;BME280;32442;51.514;-0.178;2022-10-17T05:10:45;100923.63;;;21.31;61.70
46710;BME280;32442;51.514;-0.178;2022-10-17T05:13:11;100942.16;;;21.32;61.89
46710;BME280;32442;51.514;-0.178;2022-10-17T05:15:38;100940.19;;;21.33;61.70
46710;BME280;32442;51.514;-0.178;2022-10-17T05:18:05;100946.94;;;21.32;61.99
46710;BME280;32442;51.514;-0.178;2022-10-17T05:20:32;100959.84;;;21.33;61.97
46710;BME280;32442;51.514;-0.178;2022-10-17T05:22:59;100965.78;;;21.31;61.61
46710;BME280;32442;51.514;-0.178;2022-10-17T05:25:25;100971.41;;;21.31;61.95
46710;BME280;32442;51.514;-0.178;2022-10-17T05:27:52;100974.22;;;21.31;61.58
46710;BME280;32442;51.514;-0.178;2022-10-17T05:30:19;100982.63;;;21.31;62.15
46710;BME280;32442;51.514;-0.178;2022-10-17T05:32:45;100982.63;;;21.31;62.14
46710;BME280;32442;51.514;-0.178;2022-10-17T05:35:12;100979.84;;;21.31;62.07
46710;BME280;32442;51.514;-0.178;2022-10-17T05:37:39;100975.38;;;21.30;61.69
46710;BME280;32442;51.514;-0.178;2022-10-17T05:40:06;100976.53;;;21.29;62.62
46710;BME280;32442;51.514;-0.178;2022-10-17T05:42:33;100976.81;;;21.27;62.89
46710;BME280;32442;51.514;-0.178;2022-10-17T05:44:59;100990.03;;;21.27;64.13
46710;BME280;32442;51.514;-0.178;2022-10-17T05:47:26;100974.53;;;21.29;64.34
46710;BME280;32442;51.514;-0.178;2022-10-17T05:49:53;100986.00;;;21.33;65.17
46710;BME280;32442;51.514;-0.178;2022-10-17T05:52:20;100988.16;;;21.36;65.19
46710;BME280;32442;51.514;-0.178;2022-10-17T05:54:47;100998.25;;;21.37;65.97
46710;BME280;32442;51.514;-0.178;2022-10-17T05:57:13;100996.19;;;21.43;65.98
46710;BME280;32442;51.514;-0.178;2022-10-17T05:59:40;101002.84;;;21.47;65.54
46710;BME280;32442;51.514;-0.178;2022-10-17T06:02:08;101004.72;;;21.51;65.49
46710;BME280;32442;51.514;-0.178;2022-10-17T06:04:35;101006.59;;;21.56;66.00
46710;BME280;32442;51.514;-0.178;2022-10-17T06:07:03;100987.94;;;21.60;65.87
46710;BME280;32442;51.514;-0.178;2022-10-17T06:09:30;101014.81;;;21.66;65.58
46710;BME280;32442;51.514;-0.178;2022-10-17T06:11:57;101034.69;;;21.69;65.56
46710;BME280;32442;51.514;-0.178;2022-10-17T06:14:23;101048.66;;;21.74;65.58
46710;BME280;32442;51.514;-0.178;2022-10-17T06:16:50;101052.50;;;21.79;65.23
46710;BME280;32442;51.514;-0.178;2022-10-17T06:19:17;101052.69;;;21.82;64.67
46710;BME280;32442;51.514;-0.178;2022-10-17T06:21:43;101052.56;;;21.87;65.39
46710;BME280;32442;51.514;-0.178;2022-10-17T06:24:10;101055.59;;;21.91;65.71
46710;BME280;32442;51.514;-0.178;2022-10-17T06:26:37;101058.84;;;21.98;65.28
46710;BME280;32442;51.514;-0.178;2022-10-17T06:29:03;101058.22;;;22.01;64.57
46710;BME280;32442;51.514;-0.178;2022-10-17T06:31:30;101060.50;;;21.99;64.21
46710;BME280;32442;51.514;-0.178;2022-10-17T06:33:57;101070.94;;;21.98;64.07
46710;BME280;32442;51.514;-0.178;2022-10-17T06:36:23;101066.13;;;21.99;63.56
46710;BME280;32442;51.514;-0.178;2022-10-17T06:38:50;101062.50;;;21.98;63.20
46710;BME280;32442;51.514;-0.178;2022-10-17T06:41:16;101056.53;;;22.00;63.11
46710;BME280;32442;51.514;-0.178;2022-10-17T06:43:45;101067.50;;;22.01;63.25
46710;BME280;32442;51.514;-0.178;2022-10-17T06:46:13;101078.94;;;22.05;62.90
46710;BME280;32442;51.514;-0.178;2022-10-17T06:48:46;101093.31;;;22.03;62.53
46710;BME280;32442;51.514;-0.178;2022-10-17T06:51:13;101099.78;;;22.04;62.15
46710;BME280;32442;51.514;-0.178;2022-10-17T06:53:40;101113.00;;;22.03;61.93
46710;BME280;32442;51.514;-0.178;2022-10-17T06:56:07;101115.00;;;22.03;61.80
46710;BME280;32442;51.514;-0.178;2022-10-17T06:58:34;101100.94;;;22.03;61.75
46710;BME280;32442;51.514;-0.178;2022-10-17T07:01:02;101115.00;;;22.03;61.35
46710;BME280;32442;51.514;-0.178;2022-10-17T07:03:34;101119.47;;;22.04;61.57
46710;BME280;32442;51.514;-0.178;2022-10-17T07:06:04;101129.59;;;22.05;61.33
46710;BME280;32442;51.514;-0.178;2022-10-17T07:08:30;101134.72;;;22.03;61.65
46710;BME280;32442;51.514;-0.178;2022-10-17T07:10:57;101143.16;;;22.03;61.67
46710;BME280;32442;51.514;-0.178;2022-10-17T07:13:29;101145.13;;;22.02;61.59
46710;BME280;32442;51.514;-0.178;2022-10-17T07:16:04;101143.16;;;22.03;61.65
46710;BME280;32442;51.514;-0.178;2022-10-17T07:18:30;101136.34;;;22.04;61.64
46710;BME280;32442;51.514;-0.178;2022-10-17T07:20:58;101145.03;;;22.07;61.33
46710;BME280;32442;51.514;-0.178;2022-10-17T07:23:32;101158.75;;;22.09;61.04
46710;BME280;32442;51.514;-0.178;2022-10-17T07:26:04;101175.66;;;22.09;61.07
46710;BME280;32442;51.514;-0.178;2022-10-17T07:28:34;101184.09;;;22.09;61.36
46710;BME280;32442;51.514;-0.178;2022-10-17T07:31:05;101185.22;;;22.08;61.14
46710;BME280;32442;51.514;-0.178;2022-10-17T07:33:33;101200.97;;;22.09;60.96
46710;BME280;32442;51.514;-0.178;2022-10-17T07:36:01;101208.59;;;22.08;60.89
46710;BME280;32442;51.514;-0.178;2022-10-17T07:38:28;101214.22;;;22.08;60.86
46710;BME280;32442;51.514;-0.178;2022-10-17T07:40:55;101227.97;;;22.10;60.59
46710;BME280;32442;51.514;-0.178;2022-10-17T07:43:24;101233.31;;;22.11;60.32
46710;BME280;32442;51.514;-0.178;2022-10-17T07:45:52;101239.22;;;22.10;60.43
46710;BME280;32442;51.514;-0.178;2022-10-17T07:48:19;101247.97;;;22.08;60.36
46710;BME280;32442;51.514;-0.178;2022-10-17T07:50:46;101248.59;;;22.05;60.55
46710;BME280;32442;51.514;-0.178;2022-10-17T07:53:13;101259.03;;;22.05;60.67
46710;BME280;32442;51.514;-0.178;2022-10-17T07:55:40;101255.38;;;22.04;60.88
46710;BME280;32442;51.514;-0.178;2022-10-17T07:58:07;101259.31;;;22.03;60.66
46710;BME280;32442;51.514;-0.178;2022-10-17T08:00:35;101256.50;;;22.03;60.79
46710;BME280;32442;51.514;-0.178;2022-10-17T08:03:02;101246.44;;;22.02;60.92
46710;BME280;32442;51.514;-0.178;2022-10-17T08:05:29;101260.50;;;22.02;60.91
46710;BME280;32442;51.514;-0.178;2022-10-17T08:07:56;101261.63;;;22.01;60.93
46710;BME280;32442;51.514;-0.178;2022-10-17T08:10:23;101282.16;;;22.02;60.67
46710;BME280;32442;51.514;-0.178;2022-10-17T08:12:53;101287.81;;;22.02;60.71
46710;BME280;32442;51.514;-0.178;2022-10-17T08:15:20;101283.00;;;22.02;60.36
46710;BME280;32442;51.514;-0.178;2022-10-17T08:17:46;101275.72;;;22.01;60.67
46710;BME280;32442;51.514;-0.178;2022-10-17T08:20:13;101282.16;;;22.02;60.61
46710;BME280;32442;51.514;-0.178;2022-10-17T08:22:40;101289.47;;;22.03;60.56
46710;BME280;32442;51.514;-0.178;2022-10-17T08:25:07;101284.97;;;22.02;60.17
46710;BME280;32442;51.514;-0.178;2022-10-17T08:27:34;101296.25;;;22.02;60.27
46710;BME280;32442;51.514;-0.178;2022-10-17T08:30:00;101308.34;;;22.02;60.11
46710;BME280;32442;51.514;-0.178;2022-10-17T08:32:27;101312.00;;;22.03;60.25
46710;BME280;32442;51.514;-0.178;2022-10-17T08:34:55;101312.78;;;22.03;60.21
46710;BME280;32442;51.514;-0.178;2022-10-17T08:37:22;101315.59;;;22.03;60.15
46710;BME280;32442;51.514;-0.178;2022-10-17T08:39:48;101327.69;;;22.04;59.89
46710;BME280;32442;51.514;-0.178;2022-10-17T08:47:34;101338.13;;;22.03;59.54
46710;BME280;32442;51.514;-0.178;2022-10-17T08:50:02;101336.97;;;22.04;59.46
46710;BME280;32442;51.514;-0.178;2022-10-17T08:55:16;101355.00;;;22.03;59.72
46710;BME280;32442;51.514;-0.178;2022-10-17T08:57:46;101366.25;;;22.03;59.42
46710;BME280;32442;51.514;-0.178;2022-10-17T09:00:17;101373.91;;;22.03;59.91
46710;BME280;32442;51.514;-0.178;2022-10-17T09:05:33;101384.31;;;22.02;59.61
46710;BME280;32442;51.514;-0.178;2022-10-17T09:08:02;101384.59;;;22.01;59.45
46710;BME280;32442;51.514;-0.178;2022-10-17T09:15:45;101393.69;;;21.98;59.93
46710;BME280;32442;51.514;-0.178;2022-10-17T09:20:50;101384.69;;;21.96;59.99
46710;BME280;32442;51.514;-0.178;2022-10-17T09:23:21;101391.16;;;21.96;60.00
46710;BME280;32442;51.514;-0.178;2022-10-17T09:25:58;101403.53;;;21.95;59.92
46710;BME280;32442;51.514;-0.178;2022-10-17T09:28:36;101408.34;;;21.95;59.90
46710;BME280;32442;51.514;-0.178;2022-10-17T09:33:39;101402.69;;;21.76;60.84
46710;BME280;32442;51.514;-0.178;2022-10-17T09:36:35;101411.38;;;21.80;60.18
46710;BME280;32442;51.514;-0.178;2022-10-17T09:39:09;101411.06;;;21.81;60.57
46710;BME280;32442;51.514;-0.178;2022-10-17T09:41:39;101414.72;;;21.82;60.25
46710;BME280;32442;51.514;-0.178;2022-10-17T09:44:16;101423.16;;;21.82;60.29
46710;BME280;32442;51.514;-0.178;2022-10-17T09:46:51;101431.59;;;21.82;59.93
46710;BME280;32442;51.514;-0.178;2022-10-17T09:49:29;101435.53;;;21.81;60.05
46710;BME280;32442;51.514;-0.178;2022-10-17T09:52:02;101432.72;;;21.81;59.85
46710;BME280;32442;51.514;-0.178;2022-10-17T09:54:38;101433.06;;;21.79;59.74
46710;BME280;32442;51.514;-0.178;2022-10-17T09:57:07;101439.53;;;21.80;59.68
46710;BME280;32442;51.514;-0.178;2022-10-17T10:02:31;101453.88;;;21.78;59.45
46710;BME280;32442;51.514;-0.178;2022-10-17T10:05:05;101469.91;;;21.78;59.75
46710;BME280;32442;51.514;-0.178;2022-10-17T10:07:36;101468.22;;;21.77;59.39
46710;BME280;32442;51.514;-0.178;2022-10-17T10:10:21;101478.13;;;21.74;59.27
46710;BME280;32442;51.514;-0.178;2022-10-17T10:13:16;101480.94;;;21.74;59.65
46710;BME280;32442;51.514;-0.178;2022-10-17T10:15:43;101488.53;;;21.73;59.25
46710;BME280;32442;51.514;-0.178;2022-10-17T10:23:35;101508.00;;;21.70;58.95
46710;BME280;32442;51.514;-0.178;2022-10-17T10:31:26;101508.59;;;21.67;59.23
46710;BME280;32442;51.514;-0.178;2022-10-17T10:33:54;101513.69;;;21.65;59.32
46710;BME280;32442;51.514;-0.178;2022-10-17T10:36:22;101524.09;;;21.64;59.20
46710;BME280;32442;51.514;-0.178;2022-10-17T10:38:53;101528.38;;;21.62;59.00
46710;BME280;32442;51.514;-0.178;2022-10-17T10:41:29;101535.97;;;21.61;58.74
46710;BME280;32442;51.514;-0.178;2022-10-17T10:44:12;101539.91;;;21.60;58.91
46710;BME280;32442;51.514;-0.178;2022-10-17T10:46:42;101543.03;;;21.59;59.01
46710;BME280;32442;51.514;-0.178;2022-10-17T10:49:26;101544.16;;;21.58;58.55
46710;BME280;32442;51.514;-0.178;2022-10-17T10:51:54;101539.69;;;21.57;58.42
46710;BME280;32442;51.514;-0.178;2022-10-17T10:54:36;101544.75;;;21.55;58.43
46710;BME280;32442;51.514;-0.178;2022-10-17T10:57:06;101549.88;;;21.53;58.95
46710;BME280;32442;51.514;-0.178;2022-10-17T11:02:36;101557.47;;;21.52;58.66
46710;BME280;32442;51.514;-0.178;2022-10-17T11:05:19;101568.16;;;21.50;58.24
46710;BME280;32442;51.514;-0.178;2022-10-17T11:07:50;101574.91;;;21.49;58.31
46710;BME280;32442;51.514;-0.178;2022-10-17T11:10:28;101580.84;;;21.48;58.28
46710;BME280;32442;51.514;-0.178;2022-10-17T11:13:02;101575.53;;;21.46;58.51
46710;BME280;32442;51.514;-0.178;2022-10-17T11:15:34;101582.28;;;21.45;58.07
46710;BME280;32442;51.514;-0.178;2022-10-17T11:18:04;101587.91;;;21.45;58.25
46710;BME280;32442;51.514;-0.178;2022-10-17T11:26:16;101599.75;;;21.42;57.82
46710;BME280;32442;51.514;-0.178;2022-10-17T11:29:01;101602.84;;;21.41;58.01
46710;BME280;32442;51.514;-0.178;2022-10-17T11:31:30;101603.97;;;21.40;58.11
46710;BME280;32442;51.514;-0.178;2022-10-17T11:36:45;101618.03;;;21.40;57.58
46710;BME280;32442;51.514;-0.178;2022-10-17T11:39:15;101620.31;;;21.38;57.82
46710;BME280;32442;51.514;-0.178;2022-10-17T11:41:53;101627.91;;;21.37;57.56
46710;BME280;32442;51.514;-0.178;2022-10-17T11:44:35;101629.03;;;21.36;57.50
46710;BME280;32442;51.514;-0.178;2022-10-17T11:49:44;101632.97;;;21.35;57.59
46710;BME280;32442;51.514;-0.178;2022-10-17T11:55:18;101638.94;;;21.34;57.44
46710;BME280;32442;51.514;-0.178;2022-10-17T11:58:21;101642.88;;;21.33;57.69
46710;BME280;32442;51.514;-0.178;2022-10-17T12:08:30;101641.75;;;21.34;57.23
46710;BME280;32442;51.514;-0.178;2022-10-17T12:11:02;101644.84;;;21.32;57.37
46710;BME280;32442;51.514;-0.178;2022-10-17T12:18:48;101662.53;;;21.33;57.23
46710;BME280;32442;51.514;-0.178;2022-10-17T12:21:16;101663.38;;;21.33;57.14
46710;BME280;32442;51.514;-0.178;2022-10-17T12:23:52;101660.84;;;21.32;57.23
46710;BME280;32442;51.514;-0.178;2022-10-17T12:26:26;101657.22;;;21.31;57.11
46710;BME280;32442;51.514;-0.178;2022-10-17T12:28:54;101655.56;;;21.30;56.73
46710;BME280;32442;51.514;-0.178;2022-10-17T12:31:22;101656.69;;;21.29;56.94
46710;BME280;32442;51.514;-0.178;2022-10-17T12:33:58;101655.00;;;21.28;56.99
46710;BME280;32442;51.514;-0.178;2022-10-17T12:49:19;101651.91;;;21.29;56.64
46710;BME280;32442;51.514;-0.178;2022-10-17T12:54:37;101652.44;;;21.32;56.79
46710;BME280;32442;51.514;-0.178;2022-10-17T13:02:48;101672.94;;;21.32;56.42
46710;BME280;32442;51.514;-0.178;2022-10-17T13:05:17;101667.88;;;21.34;56.38
46710;BME280;32442;51.514;-0.178;2022-10-17T13:07:44;101662.25;;;21.34;56.78
46710;BME280;32442;51.514;-0.178;2022-10-17T13:10:21;101670.69;;;21.34;56.70
46710;BME280;32442;51.514;-0.178;2022-10-17T13:12:48;101667.88;;;21.34;56.68
46710;BME280;32442;51.514;-0.178;2022-10-17T13:15:16;101687.00;;;21.32;56.24
46710;BME280;32442;51.514;-0.178;2022-10-17T13:17:44;101679.41;;;21.33;56.54
46710;BME280;32442;51.514;-0.178;2022-10-17T13:20:18;101678.56;;;21.32;56.45
46710;BME280;32442;51.514;-0.178;2022-10-17T13:22:54;101686.47;;;21.30;56.37
46710;BME280;32442;51.514;-0.178;2022-10-17T13:25:23;101683.09;;;21.28;56.08
46710;BME280;32442;51.514;-0.178;2022-10-17T13:27:50;101682.25;;;21.27;56.06
46710;BME280;32442;51.514;-0.178;2022-10-17T13:30:30;101679.22;;;21.24;56.13
46710;BME280;32442;51.514;-0.178;2022-10-17T13:32:58;101682.03;;;21.24;56.33
46710;BME280;32442;51.514;-0.178;2022-10-17T13:35:35;101688.50;;;21.24;56.09
46710;BME280;32442;51.514;-0.178;2022-10-17T13:38:25;101683.72;;;21.25;55.93
46710;BME280;32442;51.514;-0.178;2022-10-17T13:40:53;101685.69;;;21.24;55.87
46710;BME280;32442;51.514;-0.178;2022-10-17T13:43:36;101684.84;;;21.24;56.12
46710;BME280;32442;51.514;-0.178;2022-10-17T13:46:11;101688.50;;;21.24;56.24
46710;BME280;32442;51.514;-0.178;2022-10-17T13:49:08;101700.56;;;21.25;55.86
46710;BME280;32442;51.514;-0.178;2022-10-17T13:51:35;101701.41;;;21.25;56.32
46710;BME280;32442;51.514;-0.178;2022-10-17T13:54:15;101704.75;;;21.27;56.05
46710;BME280;32442;51.514;-0.178;2022-10-17T13:56:42;101704.75;;;21.27;56.16
46710;BME280;32442;51.514;-0.178;2022-10-17T13:59:43;101697.16;;;21.28;56.07
46710;BME280;32442;51.514;-0.178;2022-10-17T14:02:02;101712.91;;;21.29;55.89
46710;BME280;32442;51.514;-0.178;2022-10-17T14:04:28;101712.06;;;21.28;55.67
46710;BME280;32442;51.514;-0.178;2022-10-17T14:07:20;101705.59;;;21.28;55.79
46710;BME280;32442;51.514;-0.178;2022-10-17T14:09:49;101705.59;;;21.28;55.76
46710;BME280;32442;51.514;-0.178;2022-10-17T14:12:18;101693.50;;;21.27;55.89
46710;BME280;32442;51.514;-0.178;2022-10-17T14:14:52;101695.47;;;21.27;55.40
46710;BME280;32442;51.514;-0.178;2022-10-17T14:17:35;101710.66;;;21.26;55.32
46710;BME280;32442;51.514;-0.178;2022-10-17T14:20:04;101705.34;;;21.24;55.56
46710;BME280;32442;51.514;-0.178;2022-10-17T14:22:52;101707.31;;;21.24;55.31
46710;BME280;32442;51.514;-0.178;2022-10-17T14:25:39;101721.91;;;21.26;55.66
46710;BME280;32442;51.514;-0.178;2022-10-17T14:30:36;101717.44;;;21.25;55.58
46710;BME280;32442;51.514;-0.178;2022-10-17T14:33:29;101725.03;;;21.24;55.32
46710;BME280;32442;51.514;-0.178;2022-10-17T14:36:08;101728.97;;;21.23;55.38
46710;BME280;32442;51.514;-0.178;2022-10-17T14:38:35;101734.59;;;21.23;55.34
46710;BME280;32442;51.514;-0.178;2022-10-17T14:41:04;101730.94;;;21.23;55.47
46710;BME280;32442;51.514;-0.178;2022-10-17T14:43:58;101742.16;;;21.23;55.01
46710;BME280;32442;51.514;-0.178;2022-10-17T14:46:26;101738.84;;;21.21;55.04
46710;BME280;32442;51.514;-0.178;2022-10-17T14:48:57;101746.09;;;21.22;55.27
46710;BME280;32442;51.514;-0.178;2022-10-17T14:51:27;101745.25;;;21.21;55.00
46710;BME280;32442;51.514;-0.178;2022-10-17T14:56:52;101741.66;;;21.21;54.68
46710;BME280;32442;51.514;-0.178;2022-10-17T14:59:19;101750.34;;;21.19;54.99
46710;BME280;32442;51.514;-0.178;2022-10-17T15:02:07;101750.63;;;21.18;54.83